createdAt,value
2023-05-21T16:10:15.030Z,56
2023-05-21T16:15:20.111Z,56
2023-05-21T16:20:19.920Z,53
2023-05-21T16:25:14.011Z,53
2023-05-21T16:30:22.513Z,51
2023-05-21T16:35:22.601Z,51
2023-05-21T16:40:20.901Z,50
2023-05-21T16:45:18.823Z,50
2023-05-21T16:50:22.806Z,49
2023-05-21T16:55:18.692Z,52
2023-05-21T17:00:16.592Z,54
2023-05-21T17:05:20.301Z,53
2023-05-21T17:10:18.145Z,54
2023-05-21T17:15:14.214Z,54
2023-05-21T17:20:18.670Z,54
2023-05-21T17:25:16.428Z,55
2023-05-21T17:30:16.960Z,54
2023-05-21T17:35:14.235Z,54
2023-05-21T17:40:23.372Z,54
2023-05-21T17:45:16.630Z,54
2023-05-21T17:50:16.607Z,54
2023-05-21T17:55:15.145Z,54
2023-05-21T18:00:24.341Z,55
2023-05-21T18:05:17.698Z,55
2023-05-21T18:10:16.984Z,55
2023-05-21T18:15:20.091Z,55
2023-05-21T18:20:16.672Z,55
2023-05-21T18:25:17.043Z,55
2023-05-21T18:30:18.279Z,55
2023-05-21T18:35:17.065Z,56
2023-05-21T18:40:19.889Z,54
2023-05-21T18:45:14.765Z,55
2023-05-21T18:50:21.884Z,55
2023-05-21T18:55:19.583Z,55
2023-05-21T19:00:20.525Z,56
2023-05-21T19:05:17.278Z,56
2023-05-21T19:10:22.122Z,56
2023-05-21T19:15:14.129Z,56
2023-05-21T19:20:18.778Z,55
2023-05-21T19:25:16.702Z,57
2023-05-21T19:30:16.613Z,56
2023-05-21T19:35:18.815Z,57
2023-05-21T19:40:19.732Z,57
2023-05-21T19:45:14.824Z,58
2023-05-21T19:50:22.149Z,59
2023-05-21T19:55:19.920Z,59
2023-05-21T20:00:16.383Z,60
2023-05-21T20:05:16.392Z,59
2023-05-21T20:10:16.333Z,60
2023-05-21T20:15:19.082Z,60
2023-05-21T20:20:17.875Z,60
2023-05-21T20:25:14.194Z,59
2023-05-21T20:30:16.699Z,59
2023-05-21T20:35:19.827Z,59
2023-05-21T20:40:20.675Z,59
2023-05-21T20:45:18.645Z,59
2023-05-21T20:50:16.698Z,59
2023-05-21T20:55:20.618Z,60
2023-05-21T21:00:14.726Z,60
2023-05-21T21:05:14.382Z,60
2023-05-21T21:10:19.919Z,59
2023-05-21T21:15:14.227Z,59
2023-05-21T21:20:18.681Z,60
2023-05-21T21:25:22.597Z,59
2023-05-21T21:30:18.375Z,59
2023-05-21T21:35:14.423Z,59
2023-05-21T21:40:18.694Z,59
2023-05-21T21:45:22.731Z,59
2023-05-21T21:50:16.009Z,59
2023-05-21T21:55:16.019Z,59
2023-05-21T22:00:18.184Z,59
2023-05-21T22:05:14.369Z,58
2023-05-21T22:10:15.304Z,59
2023-05-21T22:15:14.438Z,59
2023-05-21T22:20:19.498Z,59
2023-05-21T22:25:16.482Z,59
2023-05-21T22:30:16.530Z,59
2023-05-21T22:35:14.984Z,59
2023-05-21T22:40:16.425Z,59
2023-05-21T22:45:21.019Z,59
2023-05-21T22:50:15.854Z,60
2023-05-21T22:55:19.615Z,60
2023-05-21T23:00:20.548Z,59
2023-05-21T23:05:18.945Z,59
2023-05-21T23:10:13.962Z,60
2023-05-21T23:15:20.142Z,60
2023-05-21T23:20:16.460Z,59
2023-05-21T23:25:18.264Z,60
2023-05-21T23:30:14.321Z,60
2023-05-21T23:35:18.480Z,60
2023-05-21T23:40:18.902Z,58
2023-05-21T23:45:17.768Z,60
2023-05-21T23:50:18.922Z,60
2023-05-21T23:55:15.944Z,60
